KMIC/MIC METAR and TAF weather

Enter ICAO airport designator
Station Type Date Time Source
KMIC METAR 2022/06/28 08:53 UTC NOAA

KMIC 280853Z AUTO 20007KT 10SM FEW110 20/12 A3007 RMK AO2 RAE0758 SLP177 P0000 60001 T02000122 58006


Station Type Date Time Source
KMIC Decoded METAR 2022/06/28 08:53 UTC NOAA

CRYSTAL AIRPORT, MN, United States (KMIC) 45-04N 093-21W 265M
Jun 28, 2022 - 04:53 AM EDT / 2022.06.28 0853 UTC
Wind: from the SSW (200 degrees) at 8 MPH (7 KT):0
Visibility: 10 mile(s):0
Sky conditions: mostly clear
Precipitation last hour: A trace
Temperature: 68.0 F (20.0 C)
Dew Point: 54.0 F (12.2 C)
Relative Humidity: 60%
Pressure (altimeter): 30.07 in. Hg (1018 hPa)
Pressure tendency: 0.02 inches (0.6 hPa) lower than three hours ago
ob: KMIC 280853Z AUTO 20007KT 10SM FEW110 20/12 A3007 RMK AO2 RAE0758 SLP177 P0000 60001 T02000122 58006
cycle: 9

Station Type Date Time Source
KMIC TAF UTC NOAA

Error!

Example: see airport list